createdAt,value
2019-04-27T00:01:34.302Z,98547.63
2019-04-27T00:04:23.560Z,98552.12
2019-04-27T00:06:55.331Z,98546.17
2019-04-27T00:09:27.794Z,98540.59
2019-04-27T00:11:59.063Z,98545.98
2019-04-27T00:14:28.712Z,98545.13
2019-04-27T00:16:58.244Z,98544.27
2019-04-27T00:19:31.690Z,98541.22
2019-04-27T00:22:03.136Z,98539.53
2019-04-27T00:24:33.545Z,98536.42
2019-04-27T00:27:04.523Z,98534.56
2019-04-27T00:29:34.170Z,98530.19
2019-04-27T00:32:04.363Z,98528.84
2019-04-27T00:34:34.536Z,98534.56
2019-04-27T00:37:23.666Z,98534.44
2019-04-27T00:39:59.282Z,98523.08
2019-04-27T00:42:28.974Z,98522.25
2019-04-27T00:44:58.641Z,98514.13
2019-04-27T00:47:28.250Z,98515.41
2019-04-27T00:49:57.903Z,98515.47
2019-04-27T00:52:27.597Z,98509.80
2019-04-27T00:54:57.247Z,98499.71
2019-04-27T00:57:30.951Z,98495.57
2019-04-27T01:00:09.695Z,98493.93
2019-04-27T01:02:43.636Z,98494.61
2019-04-27T01:05:15.076Z,98496.30
2019-04-27T01:07:44.699Z,98488.62
2019-04-27T01:10:14.484Z,98492.52
2019-04-27T01:12:44.104Z,98495.48
2019-04-27T01:15:13.925Z,98495.70
2019-04-27T01:17:43.673Z,98494.16
2019-04-27T01:20:13.660Z,98492.52
2019-04-27T01:22:43.282Z,98490.23
2019-04-27T01:25:13.909Z,98489.92
2019-04-27T01:28:01.295Z,98492.16
2019-04-27T01:30:35.129Z,98492.37
2019-04-27T01:33:04.837Z,98484.23
2019-04-27T01:35:34.535Z,98489.41
2019-04-27T01:38:04.216Z,98487.83
2019-04-27T01:40:33.928Z,98492.69
2019-04-27T01:43:03.619Z,98496.45
2019-04-27T01:45:33.330Z,98497.27
2019-04-27T01:48:02.949Z,98496.37
2019-04-27T01:50:32.593Z,98495.68
2019-04-27T01:53:02.293Z,98491.67
2019-04-27T01:55:32.100Z,98495.03
2019-04-27T01:58:01.779Z,98492.31
2019-04-27T02:00:56.850Z,98493.22
2019-04-27T02:03:43.957Z,98497.09
2019-04-27T02:06:13.941Z,98487.06
2019-04-27T02:08:43.695Z,98492.70
2019-04-27T02:11:13.332Z,98482.48
2019-04-27T02:13:42.946Z,98482.63
2019-04-27T02:16:12.595Z,98489.22
2019-04-27T02:18:42.289Z,98483.62
2019-04-27T02:21:11.998Z,98479.57
2019-04-27T02:23:41.615Z,98488.74
2019-04-27T02:26:11.259Z,98484.22
2019-04-27T02:28:46.469Z,98482.54
2019-04-27T02:31:23.241Z,98485.86
2019-04-27T02:34:03.359Z,98472.80
2019-04-27T02:36:32.998Z,98488.88
2019-04-27T02:39:02.682Z,98486.08
2019-04-27T02:41:32.325Z,98482.80
2019-04-27T02:44:03.727Z,98486.11
2019-04-27T02:46:33.432Z,98487.88
2019-04-27T02:49:06.364Z,98487.75
2019-04-27T02:51:52.159Z,98486.08
2019-04-27T02:54:21.772Z,98492.41
2019-04-27T02:56:52.836Z,98490.21
2019-04-27T02:59:22.713Z,98495.03
2019-04-27T03:01:57.166Z,98491.61
2019-04-27T03:04:26.778Z,98483.56
2019-04-27T03:06:56.424Z,98479.78
2019-04-27T03:09:26.035Z,98485.16
2019-04-27T03:11:56.089Z,98483.22
2019-04-27T03:14:43.805Z,98483.78
2019-04-27T03:17:22.211Z,98480.97
2019-04-27T03:20:07.174Z,98482.54
2019-04-27T03:22:42.229Z,98481.25
2019-04-27T03:25:15.303Z,98474.09
2019-04-27T03:27:46.299Z,98478.65
2019-04-27T03:30:16.700Z,98475.12
2019-04-27T03:32:46.444Z,98472.20
2019-04-27T03:35:16.155Z,98471.48
2019-04-27T03:37:46.218Z,98474.83
2019-04-27T03:40:16.061Z,98470.70
2019-04-27T03:42:49.853Z,98472.19
2019-04-27T03:45:20.051Z,98466.45
2019-04-27T03:47:50.661Z,98469.44
2019-04-27T03:50:22.020Z,98463.13
2019-04-27T03:52:53.283Z,98458.21
2019-04-27T03:55:24.632Z,98467.39
2019-04-27T03:57:54.254Z,98461.59
2019-04-27T04:00:25.673Z,98464.56
2019-04-27T04:02:55.423Z,98466.30
2019-04-27T04:05:25.137Z,98465.89
2019-04-27T04:07:54.891Z,98467.94
2019-04-27T04:10:29.217Z,98470.25
2019-04-27T04:13:02.905Z,98471.83
2019-04-27T04:15:34.181Z,98471.74
2019-04-27T04:18:03.802Z,98473.56
2019-04-27T04:20:33.435Z,98470.09
2019-04-27T04:23:03.545Z,98478.93
2019-04-27T04:25:33.441Z,98475.33
2019-04-27T04:28:03.058Z,98480.75
2019-04-27T04:30:32.696Z,98471.59
2019-04-27T04:33:02.326Z,98476.03
2019-04-27T04:35:33.328Z,98475.82
2019-04-27T04:38:03.406Z,98477.43
2019-04-27T04:40:35.032Z,98482.84
2019-04-27T04:43:12.069Z,98479.41
2019-04-27T04:45:46.007Z,98478.31
2019-04-27T04:48:20.175Z,98475.58
2019-04-27T04:50:50.097Z,98479.03
2019-04-27T04:53:20.714Z,98483.80
2019-04-27T04:55:50.671Z,98477.65
2019-04-27T04:58:21.178Z,98480.20
2019-04-27T05:00:50.877Z,98475.03
2019-04-27T05:03:21.827Z,98476.42
2019-04-27T05:05:52.004Z,98477.18
2019-04-27T05:08:21.612Z,98478.00
2019-04-27T05:10:51.253Z,98472.67
2019-04-27T05:13:20.876Z,98473.75
2019-04-27T05:15:50.519Z,98472.10
2019-04-27T05:18:20.136Z,98465.44
2019-04-27T05:20:51.488Z,98464.20
2019-04-27T05:23:21.108Z,98463.64
2019-04-27T05:25:50.748Z,98470.25
2019-04-27T05:28:20.388Z,98472.27
2019-04-27T05:30:50.045Z,98476.27
2019-04-27T05:33:19.664Z,98469.95
2019-04-27T05:35:49.421Z,98465.95
2019-04-27T05:38:19.522Z,98466.88
2019-04-27T05:40:49.954Z,98466.98
2019-04-27T05:43:21.488Z,98467.44
2019-04-27T05:46:41.795Z,98461.89
2019-04-27T05:49:20.626Z,98462.16
2019-04-27T05:51:50.434Z,98465.70
2019-04-27T05:54:20.691Z,98466.67
2019-04-27T05:56:50.347Z,98461.03
2019-04-27T05:59:20.076Z,98468.66
2019-04-27T06:01:49.746Z,98470.62
2019-04-27T06:04:19.510Z,98467.43
2019-04-27T06:06:49.930Z,98459.53
2019-04-27T06:09:19.777Z,98465.56
2019-04-27T06:11:50.650Z,98466.43
2019-04-27T06:14:20.515Z,98461.14
2019-04-27T06:16:51.390Z,98461.75
2019-04-27T06:19:21.142Z,98462.00
2019-04-27T06:21:50.759Z,98472.35
2019-04-27T06:24:20.397Z,98463.92
2019-04-27T06:26:50.023Z,98465.44
2019-04-27T06:29:19.793Z,98454.23
2019-04-27T06:31:49.763Z,98458.03
2019-04-27T06:34:19.570Z,98449.38
2019-04-27T06:36:49.193Z,98448.08
2019-04-27T06:39:20.548Z,98447.05
2019-04-27T06:41:50.575Z,98450.69
2019-04-27T06:44:20.460Z,98447.53
2019-04-27T06:46:50.150Z,98443.64
2019-04-27T06:49:19.798Z,98440.39
2019-04-27T06:51:49.898Z,98449.62
2019-04-27T06:54:21.395Z,98436.23
2019-04-27T06:56:51.302Z,98444.80
2019-04-27T06:59:20.945Z,98441.45
2019-04-27T07:01:50.570Z,98438.11
2019-04-27T07:04:20.290Z,98440.72
2019-04-27T07:06:54.051Z,98435.47
2019-04-27T07:09:21.290Z,98431.02
2019-04-27T07:11:50.914Z,98437.77
2019-04-27T07:14:20.643Z,98429.54
2019-04-27T07:16:50.821Z,98425.94
2019-04-27T07:19:20.587Z,98426.92
2019-04-27T07:21:50.211Z,98429.91
2019-04-27T07:24:19.862Z,98432.30
2019-04-27T07:26:49.489Z,98427.75
2019-04-27T07:29:19.647Z,98423.18
2019-04-27T07:31:49.870Z,98424.61
2019-04-27T07:34:19.584Z,98426.88
2019-04-27T07:36:49.319Z,98418.36
2019-04-27T07:39:19.375Z,98424.23
2019-04-27T07:41:49.287Z,98420.59
2019-04-27T07:44:23.322Z,98422.16
2019-04-27T07:47:10.674Z,98425.17
2019-04-27T07:49:40.315Z,98426.05
2019-04-27T07:52:09.946Z,98428.72
2019-04-27T07:54:41.020Z,98421.52
2019-04-27T07:57:10.800Z,98424.36
2019-04-27T07:59:42.108Z,98417.91
2019-04-27T08:02:11.962Z,98417.91
2019-04-27T08:04:41.605Z,98412.13
2019-04-27T08:07:11.263Z,98410.31
2019-04-27T08:09:40.881Z,98410.30
2019-04-27T08:12:11.000Z,98407.22
2019-04-27T08:14:40.897Z,98405.89
2019-04-27T08:17:10.546Z,98411.09
2019-04-27T08:19:40.338Z,98403.56
2019-04-27T08:22:10.156Z,98399.55
2019-04-27T08:24:39.844Z,98402.89
2019-04-27T08:27:14.230Z,98392.48
2019-04-27T08:29:44.757Z,98387.99
2019-04-27T08:32:19.556Z,98386.68
2019-04-27T08:34:49.699Z,98387.30
2019-04-27T08:37:19.397Z,98386.74
2019-04-27T08:39:49.409Z,98390.53
2019-04-27T08:42:20.396Z,98376.30
2019-04-27T08:44:50.015Z,98371.20
2019-04-27T08:47:19.695Z,98376.86
2019-04-27T08:49:49.392Z,98369.58
2019-04-27T08:52:19.481Z,98370.96
2019-04-27T08:54:51.087Z,98377.40
2019-04-27T08:57:20.653Z,98365.84
2019-04-27T08:59:51.093Z,98368.80
2019-04-27T09:02:20.898Z,98378.67
2019-04-27T09:04:50.518Z,98375.47
2019-04-27T09:07:32.142Z,98370.89
2019-04-27T09:10:06.356Z,98371.69
2019-04-27T09:12:55.694Z,98379.45
2019-04-27T09:15:29.221Z,98379.64
2019-04-27T09:17:59.906Z,98382.45
2019-04-27T09:20:40.015Z,98386.77
2019-04-27T09:23:09.987Z,98384.57
2019-04-27T09:25:39.783Z,98375.79
2019-04-27T09:28:09.464Z,98379.55
2019-04-27T09:30:39.469Z,98380.09
2019-04-27T09:33:09.286Z,98367.80
2019-04-27T09:35:38.891Z,98364.92
2019-04-27T09:38:08.605Z,98354.79
2019-04-27T09:40:38.226Z,98375.73
2019-04-27T09:43:07.958Z,98370.88
2019-04-27T09:45:37.577Z,98373.03
2019-04-27T09:48:07.439Z,98369.80
2019-04-27T09:50:37.068Z,98362.86
2019-04-27T09:53:06.791Z,98356.71
2019-04-27T09:55:36.963Z,98355.61
2019-04-27T09:58:06.645Z,98356.95
2019-04-27T10:00:36.907Z,98366.86
2019-04-27T10:03:06.805Z,98370.38
2019-04-27T10:05:36.795Z,98366.63
2019-04-27T10:08:06.756Z,98353.73
2019-04-27T10:10:37.140Z,98363.42
2019-04-27T10:13:07.223Z,98356.15
2019-04-27T10:15:36.989Z,98352.15
2019-04-27T10:18:06.762Z,98350.23
2019-04-27T10:20:40.635Z,98345.39
2019-04-27T10:23:07.762Z,98348.65
2019-04-27T10:25:37.898Z,98354.55
2019-04-27T10:28:07.639Z,98348.65
2019-04-27T10:30:37.284Z,98347.55
2019-04-27T10:33:08.138Z,98349.18
2019-04-27T10:35:38.529Z,98354.55
2019-04-27T10:38:08.154Z,98360.45
2019-04-27T10:40:37.809Z,98352.11
2019-04-27T10:43:07.511Z,98345.92
2019-04-27T10:45:37.859Z,98344.28
2019-04-27T10:48:07.813Z,98351.80
2019-04-27T10:50:37.460Z,98347.49
2019-04-27T10:53:07.187Z,98337.03
2019-04-27T10:55:36.875Z,98334.34
2019-04-27T10:58:06.670Z,98328.98
2019-04-27T11:00:54.398Z,98320.67
2019-04-27T11:03:41.762Z,98316.60
2019-04-27T11:06:20.348Z,98322.78
2019-04-27T11:08:50.050Z,98316.36
2019-04-27T11:11:19.718Z,98327.59
2019-04-27T11:13:49.409Z,98322.18
2019-04-27T11:16:19.134Z,98323.76
2019-04-27T11:18:48.836Z,98319.50
2019-04-27T11:21:18.551Z,98339.05
2019-04-27T11:23:48.246Z,98319.80
2019-04-27T11:26:17.985Z,98318.45
2019-04-27T11:28:47.615Z,98325.73
2019-04-27T11:31:17.354Z,98317.17
2019-04-27T11:33:47.034Z,98314.73
2019-04-27T11:36:19.117Z,98316.66
2019-04-27T11:38:50.538Z,98311.53
2019-04-27T11:41:20.159Z,98307.53
2019-04-27T11:43:49.952Z,98305.91
2019-04-27T11:46:19.577Z,98308.87
2019-04-27T11:48:49.295Z,98301.89
2019-04-27T11:51:18.914Z,98307.78
2019-04-27T11:53:48.566Z,98308.84
2019-04-27T11:56:18.335Z,98298.36
2019-04-27T11:58:48.842Z,98300.53
2019-04-27T12:01:18.654Z,98291.95
2019-04-27T12:03:48.375Z,98297.54
2019-04-27T12:06:18.005Z,98298.61
2019-04-27T12:08:47.714Z,98291.88
2019-04-27T12:11:17.348Z,98287.84
2019-04-27T12:13:47.384Z,98295.13
2019-04-27T12:16:17.608Z,98289.48
2019-04-27T12:18:49.130Z,98298.11
2019-04-27T12:21:18.822Z,98309.14
2019-04-27T12:23:48.453Z,98301.34
2019-04-27T12:26:31.901Z,98301.63
2019-04-27T12:29:03.465Z,98298.66
2019-04-27T12:31:35.865Z,98303.50
2019-04-27T12:34:06.174Z,98295.98
2019-04-27T12:36:35.979Z,98296.23
2019-04-27T12:39:12.212Z,98295.44
2019-04-27T12:41:41.998Z,98289.80
2019-04-27T12:44:11.796Z,98287.64
2019-04-27T12:46:41.661Z,98282.27
2019-04-27T12:49:11.626Z,98275.55
2019-04-27T12:51:41.315Z,98275.83
2019-04-27T12:54:12.607Z,98266.14
2019-04-27T12:56:46.614Z,98256.20
2019-04-27T12:59:17.974Z,98261.83
2019-04-27T13:01:47.669Z,98254.54
2019-04-27T13:04:17.323Z,98235.84
2019-04-27T13:06:47.114Z,98232.91
2019-04-27T13:09:17.345Z,98225.50
2019-04-27T13:11:47.110Z,98220.19
2019-04-27T13:14:16.730Z,98221.89
2019-04-27T13:16:47.557Z,98218.15
2019-04-27T13:19:18.025Z,98215.70
2019-04-27T13:21:47.679Z,98212.63
2019-04-27T13:24:17.377Z,98217.28
2019-04-27T13:26:47.026Z,98214.86
2019-04-27T13:29:16.798Z,98208.13
2019-04-27T13:31:46.407Z,98188.28
2019-04-27T13:34:16.034Z,98181.59
2019-04-27T13:36:45.831Z,98177.99
2019-04-27T13:39:15.900Z,98168.31
2019-04-27T13:41:46.282Z,98172.50
2019-04-27T13:44:16.204Z,98162.80
2019-04-27T13:47:03.679Z,98158.45
2019-04-27T13:49:36.352Z,98159.77
2019-04-27T13:52:07.778Z,98151.44
2019-04-27T13:54:37.423Z,98147.86
2019-04-27T13:57:07.651Z,98142.98
2019-04-27T13:59:37.420Z,98141.94
2019-04-27T14:02:07.649Z,98140.39
2019-04-27T14:04:37.297Z,98124.64
2019-04-27T14:07:08.946Z,98127.33
2019-04-27T14:09:39.267Z,98124.72
2019-04-27T14:12:21.231Z,98124.77
2019-04-27T14:14:51.426Z,98133.32
2019-04-27T14:17:21.146Z,98136.03
2019-04-27T14:19:50.770Z,98126.48
2019-04-27T14:22:20.390Z,98125.57
2019-04-27T14:24:50.109Z,98135.72
2019-04-27T14:27:21.606Z,98132.17
2019-04-27T14:29:51.253Z,98123.91
2019-04-27T14:32:20.893Z,98132.45
2019-04-27T14:34:50.525Z,98126.91
2019-04-27T14:37:20.172Z,98125.02
2019-04-27T14:39:49.817Z,98114.69
2019-04-27T14:42:19.538Z,98128.88
2019-04-27T14:44:49.383Z,98120.98
2019-04-27T14:47:19.115Z,98119.00
2019-04-27T14:49:49.213Z,98120.66
2019-04-27T14:52:19.008Z,98128.48
2019-04-27T14:54:50.822Z,98160.87
2019-04-27T14:57:22.804Z,98241.42
2019-04-27T14:59:52.472Z,98253.36
2019-04-27T15:02:22.087Z,98237.58
2019-04-27T15:04:51.737Z,98232.06
2019-04-27T15:07:21.433Z,98235.78
2019-04-27T15:09:54.447Z,98242.63
2019-04-27T15:12:24.526Z,98250.59
2019-04-27T15:14:57.287Z,98259.22
2019-04-27T15:17:26.728Z,98252.47
2019-04-27T15:19:58.182Z,98277.17
2019-04-27T15:22:30.030Z,98288.96
2019-04-27T15:25:11.811Z,98293.62
2019-04-27T15:27:37.365Z,98296.94
2019-04-27T15:30:11.145Z,98295.58
2019-04-27T15:32:51.311Z,98301.77
2019-04-27T15:35:28.507Z,98304.25
2019-04-27T15:38:04.944Z,98306.92
2019-04-27T15:40:44.010Z,98311.02
2019-04-27T15:43:15.820Z,98291.27
2019-04-27T15:45:45.512Z,98292.80
2019-04-27T15:48:15.292Z,98283.17
2019-04-27T15:50:44.913Z,98290.16
2019-04-27T15:53:14.563Z,98285.09
2019-04-27T15:55:44.259Z,98297.89
2019-04-27T15:58:13.972Z,98311.62
2019-04-27T16:00:43.735Z,98309.47
2019-04-27T16:03:13.541Z,98318.08
2019-04-27T16:05:43.232Z,98318.05
2019-04-27T16:08:15.667Z,98336.27
2019-04-27T16:10:44.456Z,98346.27
2019-04-27T16:13:15.282Z,98364.71
2019-04-27T16:15:50.156Z,98369.44
2019-04-27T16:18:16.520Z,98364.91
2019-04-27T16:20:46.243Z,98345.97
2019-04-27T16:23:18.048Z,98348.27
2019-04-27T16:25:50.701Z,98342.42
2019-04-27T16:28:18.727Z,98339.80
2019-04-27T16:30:50.649Z,98337.70
2019-04-27T16:33:23.360Z,98349.73
2019-04-27T16:35:53.009Z,98348.03
2019-04-27T16:38:26.688Z,98354.80
2019-04-27T16:40:59.654Z,98351.17
2019-04-27T16:43:30.021Z,98357.55
2019-04-27T16:46:04.287Z,98357.63
2019-04-27T16:48:34.848Z,98357.13
2019-04-27T16:51:01.358Z,98349.41
2019-04-27T16:53:39.538Z,98354.42
2019-04-27T16:56:15.103Z,98353.67
2019-04-27T16:58:40.147Z,98361.81
2019-04-27T17:01:13.335Z,98363.77
2019-04-27T17:03:43.047Z,98363.40
2019-04-27T17:06:12.679Z,98362.07
2019-04-27T17:08:42.325Z,98357.05
2019-04-27T17:11:13.830Z,98357.11
2019-04-27T17:13:49.477Z,98365.62
2019-04-27T17:16:18.945Z,98363.48
2019-04-27T17:19:04.951Z,98372.05
2019-04-27T17:21:33.447Z,98360.39
2019-04-27T17:24:03.192Z,98366.14
2019-04-27T17:26:35.568Z,98373.66
2019-04-27T17:29:16.502Z,98390.28
2019-04-27T17:31:46.023Z,98398.31
2019-04-27T17:34:18.989Z,98391.29
2019-04-27T17:36:48.469Z,98398.83
2019-04-27T17:39:19.262Z,98401.98
2019-04-27T17:41:52.864Z,98403.41
2019-04-27T17:44:23.093Z,98400.67
2019-04-27T17:46:53.040Z,98396.50
2019-04-27T17:49:22.733Z,98392.98
2019-04-27T17:51:52.532Z,98393.61
2019-04-27T17:54:22.159Z,98401.50
2019-04-27T17:56:52.406Z,98409.16
2019-04-27T17:59:22.312Z,98410.39
2019-04-27T18:01:54.065Z,98411.86
2019-04-27T18:04:23.299Z,98424.08
2019-04-27T18:06:55.664Z,98430.25
2019-04-27T18:09:24.306Z,98438.90
2019-04-27T18:11:54.485Z,98435.08
2019-04-27T18:14:24.410Z,98445.87
2019-04-27T18:16:54.101Z,98442.12
2019-04-27T18:19:28.286Z,98462.36
2019-04-27T18:22:00.945Z,98464.72
2019-04-27T18:24:48.253Z,98466.63
2019-04-27T18:27:37.808Z,98474.46
2019-04-27T18:30:16.831Z,98483.70
2019-04-27T18:32:48.933Z,98495.83
2019-04-27T18:35:19.990Z,98491.96
2019-04-27T18:37:53.513Z,98505.30
2019-04-27T18:40:24.209Z,98504.42
2019-04-27T18:42:53.195Z,98511.76
2019-04-27T18:45:22.980Z,98526.28
2019-04-27T18:47:54.270Z,98525.20
2019-04-27T18:50:28.225Z,98521.42
2019-04-27T18:53:02.631Z,98513.59
2019-04-27T18:55:31.522Z,98527.01
2019-04-27T18:58:02.121Z,98535.95
2019-04-27T19:00:32.052Z,98538.41
2019-04-27T19:03:01.720Z,98544.27
2019-04-27T19:05:39.658Z,98535.82
2019-04-27T19:08:02.688Z,98534.83
2019-04-27T19:10:32.317Z,98540.27
2019-04-27T19:13:02.303Z,98547.19
2019-04-27T19:15:31.977Z,98552.19
2019-04-27T19:18:01.606Z,98568.09
2019-04-27T19:20:31.312Z,98561.19
2019-04-27T19:23:00.994Z,98561.50
2019-04-27T19:25:32.305Z,98568.95
2019-04-27T19:28:15.375Z,98568.66
2019-04-27T19:30:44.852Z,98570.28
2019-04-27T19:33:14.493Z,98577.73
2019-04-27T19:35:44.116Z,98581.02
2019-04-27T19:38:13.739Z,98580.59
2019-04-27T19:40:43.392Z,98582.30
2019-04-27T19:43:13.009Z,98585.25
2019-04-27T19:45:42.685Z,98593.73
2019-04-27T19:48:12.295Z,98589.95
2019-04-27T19:50:41.920Z,98607.58
2019-04-27T19:53:11.574Z,98618.53
2019-04-27T19:55:42.838Z,98629.00
2019-04-27T19:58:13.964Z,98656.63
2019-04-27T20:00:48.427Z,98654.20
2019-04-27T20:03:22.718Z,98673.17
2019-04-27T20:05:52.336Z,98668.68
2019-04-27T20:08:27.893Z,98667.01
2019-04-27T20:10:57.802Z,98656.34
2019-04-27T20:13:27.511Z,98651.92
2019-04-27T20:15:57.572Z,98647.28
2019-04-27T20:18:27.344Z,98646.80
2019-04-27T20:20:56.963Z,98647.00
2019-04-27T20:23:26.624Z,98640.03
2019-04-27T20:25:56.243Z,98648.08
2019-04-27T20:28:25.945Z,98656.83
2019-04-27T20:30:55.631Z,98658.72
2019-04-27T20:33:25.247Z,98664.51
2019-04-27T20:35:54.891Z,98663.06
2019-04-27T20:38:24.522Z,98669.60
2019-04-27T20:40:54.164Z,98670.88
2019-04-27T20:43:24.800Z,98684.39
2019-04-27T20:45:54.569Z,98711.64
2019-04-27T20:48:24.195Z,98743.08
2019-04-27T20:50:53.853Z,98732.95
2019-04-27T20:53:25.113Z,98740.00
2019-04-27T20:55:54.784Z,98726.93
2019-04-27T20:58:24.470Z,98720.77
2019-04-27T21:00:54.072Z,98721.02
2019-04-27T21:03:25.354Z,98700.22
2019-04-27T21:06:05.596Z,98689.97
2019-04-27T21:08:36.884Z,98685.78
2019-04-27T21:11:06.501Z,98690.94
2019-04-27T21:13:36.164Z,98692.06
2019-04-27T21:16:06.051Z,98696.91
2019-04-27T21:18:35.710Z,98706.41
2019-04-27T21:21:05.330Z,98708.52
2019-04-27T21:23:34.976Z,98711.52
2019-04-27T21:26:04.747Z,98712.13
2019-04-27T21:28:34.590Z,98721.84
2019-04-27T21:31:04.228Z,98723.86
2019-04-27T21:33:33.851Z,98728.68
2019-04-27T21:36:03.485Z,98733.70
2019-04-27T21:38:33.141Z,98727.58
2019-04-27T21:41:02.779Z,98727.52
2019-04-27T21:43:32.803Z,98727.58
2019-04-27T21:46:02.521Z,98729.80
2019-04-27T21:48:32.132Z,98736.46
2019-04-27T21:51:01.773Z,98741.72
2019-04-27T21:53:33.036Z,98746.85
2019-04-27T21:56:04.324Z,98747.96
2019-04-27T21:58:34.007Z,98748.33
2019-04-27T22:01:13.203Z,98754.34
2019-04-27T22:03:43.031Z,98751.59
2019-04-27T22:06:12.866Z,98755.97
2019-04-27T22:08:42.611Z,98754.06
2019-04-27T22:11:12.366Z,98751.17
2019-04-27T22:13:42.005Z,98761.90
2019-04-27T22:16:13.123Z,98756.34
2019-04-27T22:18:42.914Z,98760.41
2019-04-27T22:21:12.664Z,98757.67
2019-04-27T22:23:46.469Z,98760.77
2019-04-27T22:26:16.080Z,98759.95
2019-04-27T22:28:49.328Z,98760.02
2019-04-27T22:31:17.059Z,98760.19
2019-04-27T22:33:46.696Z,98754.86
2019-04-27T22:36:16.310Z,98754.21
2019-04-27T22:38:46.042Z,98751.18
2019-04-27T22:41:23.153Z,98750.73
2019-04-27T22:43:52.585Z,98752.96
2019-04-27T22:46:32.853Z,98763.24
2019-04-27T22:49:03.053Z,98763.55
2019-04-27T22:51:32.667Z,98751.70
2019-04-27T22:54:02.287Z,98758.66
2019-04-27T22:56:32.257Z,98765.60
2019-04-27T22:59:04.108Z,98768.36
2019-04-27T23:01:40.699Z,98768.69
2019-04-27T23:04:19.650Z,98769.43
2019-04-27T23:06:49.433Z,98774.17
2019-04-27T23:09:19.185Z,98767.59
2019-04-27T23:11:48.823Z,98762.27
2019-04-27T23:14:18.436Z,98757.08
2019-04-27T23:16:52.213Z,98747.38
2019-04-27T23:19:21.898Z,98745.78
2019-04-27T23:21:53.176Z,98750.13
2019-04-27T23:24:22.964Z,98743.89
2019-04-27T23:26:52.582Z,98731.92
2019-04-27T23:29:22.223Z,98726.73
2019-04-27T23:31:53.507Z,98725.09
2019-04-27T23:34:23.148Z,98720.36
2019-04-27T23:36:52.834Z,98725.41
2019-04-27T23:39:22.474Z,98737.06
2019-04-27T23:41:52.111Z,98728.11
2019-04-27T23:44:21.743Z,98731.13
2019-04-27T23:46:51.360Z,98732.92
2019-04-27T23:49:21.000Z,98737.61
2019-04-27T23:51:52.259Z,98741.81
2019-04-27T23:54:21.914Z,98739.62
2019-04-27T23:56:51.908Z,98731.53
2019-04-27T23:59:25.174Z,98734.51
